createdAt,value
2017-09-02T00:01:45.854Z,98781.55
2017-09-02T00:04:12.194Z,98779.22
2017-09-02T00:06:38.520Z,98782.20
2017-09-02T00:09:04.853Z,98778.77
2017-09-02T00:11:31.221Z,98775.47
2017-09-02T00:13:57.516Z,98781.63
2017-09-02T00:16:23.837Z,98774.43
2017-09-02T00:18:50.166Z,98775.52
2017-09-02T00:21:16.491Z,98773.20
2017-09-02T00:23:42.723Z,98774.14
2017-09-02T00:26:08.947Z,98769.78
2017-09-02T00:28:35.183Z,98771.48
2017-09-02T00:31:01.521Z,98769.19
2017-09-02T00:33:27.892Z,98774.30
2017-09-02T00:35:54.165Z,98769.67
2017-09-02T00:38:20.418Z,98771.56
2017-09-02T00:40:46.752Z,98770.29
2017-09-02T00:43:13.073Z,98776.92
2017-09-02T00:45:39.405Z,98766.98
2017-09-02T00:48:05.730Z,98771.45
2017-09-02T00:50:31.969Z,98765.83
2017-09-02T00:52:58.318Z,98765.06
2017-09-02T00:55:24.638Z,98768.34
2017-09-02T00:57:50.978Z,98767.63
2017-09-02T01:00:17.274Z,98765.32
2017-09-02T01:02:43.518Z,98764.38
2017-09-02T01:05:09.746Z,98769.39
2017-09-02T01:07:36.000Z,98773.13
2017-09-02T01:10:02.328Z,98769.95
2017-09-02T01:12:28.629Z,98769.62
2017-09-02T01:14:55.782Z,98766.16
2017-09-02T01:17:22.005Z,98762.67
2017-09-02T01:19:48.236Z,98769.11
2017-09-02T01:22:14.476Z,98768.82
2017-09-02T01:24:40.734Z,98769.53
2017-09-02T01:27:07.034Z,98762.43
2017-09-02T01:29:33.295Z,98768.88
2017-09-02T01:31:59.612Z,98767.86
2017-09-02T01:34:25.913Z,98771.41
2017-09-02T01:36:52.161Z,98770.81
2017-09-02T01:39:18.405Z,98775.85
2017-09-02T01:41:44.725Z,98776.31
2017-09-02T01:44:11.021Z,98773.84
2017-09-02T01:46:37.301Z,98782.39
2017-09-02T01:49:03.620Z,98784.55
2017-09-02T01:51:29.854Z,98782.28
2017-09-02T01:53:56.184Z,98783.27
2017-09-02T01:56:22.405Z,98786.77
2017-09-02T01:58:48.634Z,98791.55
2017-09-02T02:01:14.870Z,98785.84
2017-09-02T02:03:41.112Z,98791.78
2017-09-02T02:06:07.428Z,98791.41
2017-09-02T02:08:33.796Z,98793.16
2017-09-02T02:11:00.019Z,98792.55
2017-09-02T02:13:26.344Z,98790.63
2017-09-02T02:15:52.648Z,98798.89
2017-09-02T02:18:18.894Z,98796.90
2017-09-02T02:20:45.095Z,98802.62
2017-09-02T02:23:11.351Z,98799.66
2017-09-02T02:25:37.676Z,98801.66
2017-09-02T02:28:03.928Z,98811.82
2017-09-02T02:30:30.233Z,98806.58
2017-09-02T02:32:56.503Z,98808.38
2017-09-02T02:35:22.802Z,98806.93
2017-09-02T02:37:49.035Z,98809.67
2017-09-02T02:40:15.264Z,98816.52
2017-09-02T02:42:41.482Z,98822.84
2017-09-02T02:45:07.710Z,98825.99
2017-09-02T02:47:33.961Z,98834.51
2017-09-02T02:50:00.292Z,98827.27
2017-09-02T02:52:26.621Z,98830.71
2017-09-02T02:54:52.863Z,98829.91
2017-09-02T02:57:19.172Z,98832.55
2017-09-02T02:59:45.416Z,98832.70
2017-09-02T03:02:11.740Z,98832.10
2017-09-02T03:04:38.001Z,98829.94
2017-09-02T03:07:04.318Z,98830.89
2017-09-02T03:09:30.656Z,98827.14
2017-09-02T03:11:56.987Z,98833.38
2017-09-02T03:14:23.323Z,98838.20
2017-09-02T03:16:49.619Z,98826.85
2017-09-02T03:19:15.866Z,98836.82
2017-09-02T03:21:42.095Z,98837.61
2017-09-02T03:24:08.345Z,98835.19
2017-09-02T03:26:34.709Z,98837.16
2017-09-02T03:29:01.006Z,98840.96
2017-09-02T03:31:27.386Z,98842.20
2017-09-02T03:33:53.652Z,98841.22
2017-09-02T03:36:19.893Z,98846.72
2017-09-02T03:38:46.227Z,98849.42
2017-09-02T03:41:12.558Z,98856.39
2017-09-02T03:43:38.871Z,98852.12
2017-09-02T03:46:05.117Z,98861.52
2017-09-02T03:48:31.426Z,98865.52
2017-09-02T03:50:57.666Z,98861.72
2017-09-02T03:53:24.002Z,98861.75
2017-09-02T03:55:50.381Z,98866.82
2017-09-02T03:58:17.647Z,98865.30
2017-09-02T04:00:43.962Z,98866.83
2017-09-02T04:03:11.354Z,98868.72
2017-09-02T04:05:38.606Z,98877.45
2017-09-02T04:08:04.912Z,98880.47
2017-09-02T04:10:31.242Z,98874.17
2017-09-02T04:12:57.541Z,98882.81
2017-09-02T04:15:24.529Z,98879.20
2017-09-02T04:17:50.851Z,98882.41
2017-09-02T04:20:17.159Z,98883.79
2017-09-02T04:22:43.487Z,98888.59
2017-09-02T04:25:09.835Z,98898.11
2017-09-02T04:27:36.139Z,98894.98
2017-09-02T04:30:02.594Z,98891.21
2017-09-02T04:32:28.958Z,98889.52
2017-09-02T04:34:55.334Z,98888.89
2017-09-02T04:37:21.675Z,98887.10
2017-09-02T04:39:48.046Z,98883.92
2017-09-02T04:42:14.376Z,98883.39
2017-09-02T04:44:40.724Z,98885.20
2017-09-02T04:47:07.124Z,98885.20
2017-09-02T04:49:33.506Z,98876.26
2017-09-02T04:51:59.828Z,98876.49
2017-09-02T04:54:26.075Z,98881.86
2017-09-02T04:56:52.414Z,98880.26
2017-09-02T04:59:18.765Z,98875.19
2017-09-02T05:01:45.126Z,98872.41
2017-09-02T05:04:11.518Z,98869.09
2017-09-02T05:06:37.892Z,98871.38
2017-09-02T05:09:04.289Z,98868.62
2017-09-02T05:11:30.701Z,98866.34
2017-09-02T05:13:58.045Z,98868.03
2017-09-02T05:16:24.467Z,98857.33
2017-09-02T05:18:51.333Z,98863.37
2017-09-02T05:21:17.628Z,98860.38
2017-09-02T12:43:13.161Z,98599.45
2017-09-02T12:45:39.357Z,98588.72
2017-09-02T12:48:05.529Z,98596.50
2017-09-02T12:50:31.820Z,98596.41
2017-09-02T12:52:58.114Z,98593.38
2017-09-02T12:55:24.317Z,98585.02
2017-09-02T12:57:50.527Z,98581.01
2017-09-02T13:00:17.567Z,98580.74
2017-09-02T13:02:43.788Z,98585.05
2017-09-02T13:05:09.967Z,98576.19
2017-09-02T13:07:36.162Z,98574.55
2017-09-02T13:10:02.352Z,98578.13
2017-09-02T13:12:28.537Z,98579.39
2017-09-02T13:14:54.739Z,98571.86
2017-09-02T13:17:20.927Z,98582.52
2017-09-02T13:19:47.152Z,98566.00
2017-09-02T13:22:13.339Z,98565.59
2017-09-02T13:24:39.552Z,98561.40
2017-09-02T13:27:05.747Z,98559.84
2017-09-02T13:29:31.950Z,98557.16
2017-09-02T13:31:58.156Z,98562.46
2017-09-02T13:34:24.337Z,98547.23
2017-09-02T13:36:50.536Z,98545.55
2017-09-02T13:39:16.761Z,98539.33
2017-09-02T13:41:42.946Z,98541.39
2017-09-02T13:44:09.157Z,98548.78
2017-09-02T13:46:35.373Z,98546.45
2017-09-02T13:49:01.557Z,98541.80
2017-09-02T13:51:27.750Z,98548.08
2017-09-02T13:53:53.936Z,98549.64
2017-09-02T13:56:20.142Z,98542.23
2017-09-02T13:58:46.383Z,98544.67
2017-09-02T14:01:12.614Z,98546.56
2017-09-02T14:03:38.851Z,98543.42
2017-09-02T14:06:05.031Z,98531.17
2017-09-02T14:08:31.339Z,98524.84
2017-09-02T14:10:57.579Z,98526.70
2017-09-02T14:13:27.513Z,98526.66
2017-09-02T14:15:53.832Z,98527.65
2017-09-02T14:20:59.251Z,98530.67
2017-09-02T14:23:25.577Z,98526.31
2017-09-02T14:25:51.802Z,98528.64
2017-09-02T14:28:18.046Z,98522.09
2017-09-02T14:30:44.338Z,98528.35
2017-09-02T14:33:10.568Z,98522.66
2017-09-02T14:35:36.847Z,98523.42
2017-09-02T14:38:03.087Z,98518.98
2017-09-02T14:40:29.471Z,98525.74
2017-09-02T14:42:55.727Z,98535.88
2017-09-02T14:45:22.993Z,98524.80
2017-09-02T14:47:49.290Z,98520.22
2017-09-02T14:50:15.550Z,98512.95
2017-09-02T14:52:41.760Z,98510.91
2017-09-02T14:55:08.012Z,98509.96
2017-09-02T14:57:34.262Z,98512.80
2017-09-02T15:00:00.745Z,98506.77
2017-09-02T15:02:27.000Z,98513.44
2017-09-02T15:04:53.933Z,98516.05
2017-09-02T15:07:20.139Z,98513.34
2017-09-02T15:09:46.435Z,98509.62
2017-09-02T15:12:12.735Z,98507.67
2017-09-02T15:14:39.060Z,98504.19
2017-09-02T15:17:05.290Z,98504.61
2017-09-02T15:19:31.533Z,98497.84
2017-09-02T15:21:58.059Z,98496.84
2017-09-02T15:24:24.520Z,98507.02
2017-09-02T15:26:51.823Z,98496.43
2017-09-02T15:29:18.091Z,98491.44
2017-09-02T15:31:44.296Z,98500.45
2017-09-02T15:34:10.510Z,98495.00
2017-09-02T15:36:40.495Z,98496.62
2017-09-02T15:39:06.703Z,98495.73
2017-09-02T15:41:33.472Z,98497.30
2017-09-02T15:43:59.969Z,98495.52
2017-09-02T15:46:26.271Z,98497.56
2017-09-02T15:48:52.570Z,98497.27
2017-09-02T15:51:19.625Z,98494.11
2017-09-02T15:53:46.416Z,98495.23
2017-09-02T15:56:12.672Z,98484.36
2017-09-02T15:58:38.918Z,98487.94
2017-09-02T16:01:05.167Z,98492.44
2017-09-02T16:03:31.467Z,98494.58
2017-09-02T16:05:57.688Z,98490.63
2017-09-02T16:08:23.968Z,98489.60
2017-09-02T16:10:50.258Z,98491.23
2017-09-02T16:13:16.512Z,98489.95
2017-09-02T16:15:42.765Z,98491.95
2017-09-02T16:18:09.105Z,98495.41
2017-09-02T16:20:35.380Z,98499.68
2017-09-02T16:23:01.681Z,98498.55
2017-09-02T16:25:28.023Z,98502.17
2017-09-02T16:27:54.288Z,98500.19
2017-09-02T16:30:20.545Z,98496.69
2017-09-02T16:32:46.788Z,98502.34
2017-09-02T16:35:17.415Z,98506.44
2017-09-02T16:41:49.877Z,98503.36
2017-09-02T16:44:16.178Z,98491.60
2017-09-02T16:46:43.541Z,98497.23
2017-09-02T16:49:12.018Z,98489.91
2017-09-02T16:51:39.116Z,98491.16
2017-09-02T16:54:05.881Z,98494.66
2017-09-02T16:56:32.153Z,98497.97
2017-09-02T16:58:59.306Z,98505.70
2017-09-02T17:01:26.778Z,98507.25
2017-09-02T17:03:54.269Z,98505.66
2017-09-02T17:06:20.475Z,98507.63
2017-09-02T17:08:46.819Z,98507.00
2017-09-02T17:11:13.105Z,98522.75
2017-09-02T17:13:39.327Z,98519.87
2017-09-02T17:16:05.625Z,98523.05
2017-09-02T17:18:31.952Z,98527.49
2017-09-02T17:20:58.222Z,98529.89
2017-09-02T17:23:24.483Z,98528.14
2017-09-02T17:25:50.748Z,98527.30
2017-09-02T17:28:16.991Z,98529.29
2017-09-02T17:30:43.218Z,98529.19
2017-09-02T17:33:09.507Z,98527.95
2017-09-02T17:35:35.803Z,98527.09
2017-09-02T17:38:02.129Z,98529.36
2017-09-02T17:40:28.472Z,98533.72
2017-09-02T17:42:54.724Z,98532.76
2017-09-02T17:45:20.964Z,98532.16
2017-09-02T17:47:47.238Z,98530.66
2017-09-02T17:50:13.481Z,98528.96
2017-09-02T17:52:39.838Z,98538.91
2017-09-02T17:57:36.367Z,98533.89
2017-09-02T18:00:02.614Z,98538.13
2017-09-02T18:09:12.145Z,98530.23
2017-09-02T18:11:38.400Z,98539.77
2017-09-02T18:14:04.670Z,98538.03
2017-09-02T18:16:30.996Z,98538.45
2017-09-02T18:18:57.386Z,98539.08
2017-09-02T18:21:23.711Z,98539.09
2017-09-02T18:23:50.229Z,98537.77
2017-09-02T18:26:16.547Z,98544.15
2017-09-02T18:28:43.588Z,98544.53
2017-09-02T18:31:09.903Z,98551.94
2017-09-02T18:33:36.158Z,98552.49
2017-09-02T18:36:02.450Z,98551.44
2017-09-02T18:38:29.107Z,98555.14
2017-09-02T18:40:55.379Z,98546.83
2017-09-02T18:43:21.726Z,98550.07
2017-09-02T18:45:47.985Z,98560.23
2017-09-02T18:48:14.259Z,98555.98
2017-09-02T18:50:40.577Z,98547.91
2017-09-02T18:53:06.856Z,98544.20
2017-09-02T18:55:33.150Z,98542.03
2017-09-02T18:57:59.472Z,98549.94
2017-09-02T19:00:25.724Z,98552.78
2017-09-02T19:02:52.059Z,98553.56
2017-09-02T19:05:18.435Z,98555.52
2017-09-02T19:07:44.774Z,98561.91
2017-09-02T19:10:11.067Z,98558.99
2017-09-02T19:12:37.374Z,98556.27
2017-09-02T19:15:03.812Z,98542.59
2017-09-02T19:17:30.639Z,98539.16
2017-09-02T19:19:56.971Z,98547.03
2017-09-02T19:22:23.309Z,98547.93
2017-09-02T19:24:49.674Z,98546.83
2017-09-02T19:27:15.960Z,98548.80
2017-09-02T19:29:42.165Z,98545.02
2017-09-02T19:32:08.926Z,98544.73
2017-09-02T19:34:35.351Z,98553.73
2017-09-02T19:37:01.636Z,98555.98
2017-09-02T19:39:28.851Z,98563.34
2017-09-02T19:41:55.120Z,98546.09
2017-09-02T19:44:21.494Z,98546.91
2017-09-02T19:46:47.949Z,98549.75
2017-09-02T19:49:14.289Z,98549.86
2017-09-02T19:51:40.603Z,98547.18
2017-09-02T19:54:06.838Z,98547.26
2017-09-02T19:56:33.158Z,98549.14
2017-09-02T19:58:59.479Z,98537.99
2017-09-02T20:08:09.199Z,98545.83
2017-09-02T20:10:35.684Z,98529.03
2017-09-02T20:13:01.916Z,98533.28
2017-09-02T20:15:30.091Z,98521.53
2017-09-02T20:17:56.434Z,98528.73
2017-09-02T20:20:22.836Z,98526.59
2017-09-02T20:22:49.152Z,98520.52
2017-09-02T20:25:15.514Z,98533.08
2017-09-02T20:27:42.532Z,98534.98
2017-09-02T20:30:08.873Z,98530.70
2017-09-02T20:32:35.198Z,98541.84
2017-09-02T20:35:01.514Z,98545.33
2017-09-02T20:37:27.829Z,98542.42
2017-09-02T20:39:54.108Z,98546.77
2017-09-02T20:42:20.409Z,98557.69
2017-09-02T20:44:46.707Z,98557.00
2017-09-02T20:47:12.991Z,98570.81
2017-09-02T20:49:39.293Z,98555.47
2017-09-02T21:19:26.817Z,98565.30
2017-09-02T21:32:03.369Z,98545.61
2017-09-02T21:37:12.935Z,98538.63
